Rawalpindi Weather



Rawalpindi's Current Weather

Temprature 31.76o clear sky

clear sky

Rain: 0 %

Min Temprature31o
Max Temprature32.22o
Humidity52
Wind Speed1.5 m/h
Sun Rise05:02:53
Sun Set19:21:24
Current Time: 05-Jul-2020 19:42:53
Lat/Lon: 33.6, 73.07




Rawalpindi's Geo Location



Rawalpindi's Weather Forecast

Time Overall Temp Min Temp Max Temp Humidity Wind Speed Rain
05-Jul-2020 (Sun)
20:00:00 few clouds 32.510 32.510 33.300 44 1.17 m/h 0 %
23:00:00 light rain 31.710 31.690 31.710 42 1.47 m/h 12 %
06-Jul-2020 (Mon)
02:00:00 light rain 29.550 29.400 29.550 46 3.67 m/h 100 %
05:00:00 light rain 28.280 28.250 28.280 47 2.19 m/h 16 %
08:00:00 clear sky 33.020 33.020 33.020 34 1.66 m/h 0 %
11:00:00 few clouds 37.150 37.150 37.150 24 1.3 m/h 0 %
14:00:00 clear sky 39.610 39.610 39.610 18 2.11 m/h 0 %
17:00:00 clear sky 39.820 39.820 39.820 16 2.65 m/h 0 %
20:00:00 clear sky 36.100 36.100 36.100 19 2.66 m/h 0 %
23:00:00 clear sky 34.220 34.220 34.220 22 2.01 m/h 0 %
07-Jul-2020 (Tue)
02:00:00 few clouds 32.380 32.380 32.380 27 2.34 m/h 0 %
05:00:00 few clouds 31.390 31.390 31.390 29 2.49 m/h 0 %
08:00:00 clear sky 36.480 36.480 36.480 21 2.45 m/h 0 %
11:00:00 clear sky 39.910 39.910 39.910 18 2.94 m/h 0 %
14:00:00 scattered clouds 42.170 42.170 42.170 15 1.56 m/h 0 %
17:00:00 scattered clouds 42.120 42.120 42.120 14 1.28 m/h 0 %
20:00:00 clear sky 38.400 38.400 38.400 17 2.81 m/h 0 %
23:00:00 clear sky 35.950 35.950 35.950 20 1.86 m/h 0 %
08-Jul-2020 (Wed)
02:00:00 clear sky 34.490 34.490 34.490 22 2.87 m/h 0 %
05:00:00 scattered clouds 33.090 33.090 33.090 30 4.98 m/h 0 %
08:00:00 clear sky 35.170 35.170 35.170 39 5.16 m/h 0 %
11:00:00 clear sky 39.010 39.010 39.010 31 4.29 m/h 0 %
14:00:00 clear sky 41.890 41.890 41.890 20 2.21 m/h 0 %
17:00:00 clear sky 42.360 42.360 42.360 17 1.26 m/h 0 %
20:00:00 clear sky 39.000 39.000 39.000 20 1.53 m/h 0 %
23:00:00 clear sky 36.680 36.680 36.680 25 3.14 m/h 0 %
09-Jul-2020 (Thu)
02:00:00 few clouds 34.800 34.800 34.800 34 5.75 m/h 0 %
05:00:00 scattered clouds 32.680 32.680 32.680 45 5.25 m/h 0 %
08:00:00 broken clouds 34.250 34.250 34.250 45 6.53 m/h 0 %
11:00:00 broken clouds 38.270 38.270 38.270 35 6.14 m/h 0 %
14:00:00 few clouds 41.460 41.460 41.460 25 3.77 m/h 0 %
17:00:00 scattered clouds 42.240 42.240 42.240 20 2.79 m/h 0 %
20:00:00 few clouds 37.680 37.680 37.680 28 2.88 m/h 0 %
23:00:00 light rain 31.150 31.150 31.150 48 6.48 m/h 222 %
10-Jul-2020 (Fri)
02:00:00 moderate rain 28.600 28.600 28.600 57 5.46 m/h 304 %
05:00:00 light rain 27.760 27.760 27.760 62 3.93 m/h 275 %
08:00:00 few clouds 31.520 31.520 31.520 45 1.5 m/h 0 %
11:00:00 clear sky 35.150 35.150 35.150 37 2.34 m/h 0 %
14:00:00 clear sky 38.360 38.360 38.360 30 2.91 m/h 0 %
17:00:00 clear sky 39.270 39.270 39.270 27 2.39 m/h 0 %


Rawalpindi's Tourist Spots

Parks and Zoos in Rawalpindi

Famous Cities (60)